M I D A S
Marine Information and Data Acquisition System
Tripno 1245 of the Zeeleeuw from 2007-04-16 11:27:28 to 2007-04-16 14:26:46
Back to CruiseResearch ActivitiesStationsMapUnderway DataData graphs

EquipmentUnitsComment
TimeDGPSUTC
LatitudeDGPSDM.mWGS84
LongitudeDGPSDM.mWGS84
HeadingGyrodeg 
SOGDGPSknotsSpeed over ground
COGDGPSdegCourse over ground
DepthEcho soundermeters200 kHz
Missing or incorrect values are displayed as -999
Navigation data collected by the RV Zeeleeuw from 2007-04-16 08:22:18 to 2007-04-16 14:35:22
Time Latitude Longitude Heading SOG COG Depth
2007-04-16 08:23:23 51°13.612 2°56.036 111.1 3.7 287 -999
2007-04-16 08:24:23 51°13.637 2°55.939 126.5 4.2 299 -999
2007-04-16 08:25:23 51°13.678 2°55.845 128.2 4.1 306 -999
2007-04-16 08:26:23 51°13.707 2°55.766 118.3 3 296 -999
2007-04-16 08:27:23 51°13.717 2°55.736 86.9 1.4 92 -999
2007-04-16 08:28:23 51°13.712 2°55.73 66.9 1.2 243 -999
2007-04-16 08:29:23 51°13.714 2°55.736 33.3 0.6 196 -999
2007-04-16 08:30:23 51°13.705 2°55.731 17 0.3 39 -999
2007-04-16 08:31:23 51°13.722 2°55.727 335.7 1.8 332 -999
2007-04-16 08:32:23 51°13.767 2°55.683 335.6 4.6 331 -999
2007-04-16 08:33:23 51°13.837 2°55.622 336.3 4.9 332 -999
2007-04-16 08:34:23 51°13.907 2°55.561 336.4 4.6 332 -999
2007-04-16 08:35:23 51°13.965 2°55.508 325 3.5 321 -999
2007-04-16 08:36:23 51°14 2°55.459 333.4 1.5 324 -999
2007-04-16 08:37:23 51°14.004 2°55.454 342.2 0.1 59 -999
2007-04-16 08:38:23 51°14.005 2°55.453 344.6 -999 133 -999
2007-04-16 08:39:23 51°14.003 2°55.451 350.4 -999 127 -999
2007-04-16 08:40:23 51°14.004 2°55.451 349.5 -999 326 -999
2007-04-16 08:41:23 51°14.005 2°55.452 349.5 -999 197 -999
2007-04-16 08:42:23 51°14.004 2°55.452 349.5 -999 355 -999
2007-04-16 08:43:23 51°14.004 2°55.451 349.5 -999 74 -999
2007-04-16 08:44:23 51°14.004 2°55.451 350 0.1 129 -999
2007-04-16 08:45:23 51°14.002 2°55.448 350.1 -999 213 -999
2007-04-16 08:46:23 51°14.003 2°55.45 350.2 -999 47 -999
2007-04-16 08:47:23 51°14.004 2°55.452 349.8 -999 2 -999
2007-04-16 08:48:23 51°14.003 2°55.451 349.8 -999 103 -999
2007-04-16 08:49:23 51°14.003 2°55.45 349.8 -999 193 -999
2007-04-16 08:50:23 51°14.003 2°55.451 349.6 -999 303 -999
2007-04-16 08:51:23 51°14.003 2°55.451 349.7 -999 20 -999
2007-04-16 08:52:23 51°14.003 2°55.451 349.8 -999 152 -999
2007-04-16 08:53:23 51°14.003 2°55.451 349.9 -999 152 -999
2007-04-16 08:54:23 51°14.004 2°55.451 349.6 -999 120 -999
2007-04-16 08:55:23 51°14.004 2°55.451 349.6 -999 359 -999
2007-04-16 08:56:23 51°14.004 2°55.451 349.6 -999 338 -999
2007-04-16 08:57:23 51°14.004 2°55.451 349.8 -999 245 -999
2007-04-16 08:58:23 51°14.004 2°55.451 349.5 -999 37 -999
2007-04-16 08:59:23 51°14.004 2°55.451 349.5 -999 33 -999
2007-04-16 09:00:23 51°14.004 2°55.45 349.5 -999 187 -999
2007-04-16 09:01:23 51°14.004 2°55.451 349.4 -999 334 -999
2007-04-16 09:02:23 51°14.003 2°55.45 349.3 -999 36 -999
2007-04-16 09:03:23 51°14.003 2°55.451 349.3 -999 342 -999
2007-04-16 09:04:23 51°14.003 2°55.45 349.5 0.1 74 -999
2007-04-16 09:05:23 51°14.004 2°55.45 349.3 -999 252 -999
2007-04-16 09:06:23 51°14.003 2°55.45 349.2 -999 162 -999
2007-04-16 09:07:23 51°14 2°55.446 349.1 -999 351 -999
2007-04-16 09:08:23 51°14.001 2°55.448 349.6 -999 340 -999
2007-04-16 09:09:23 51°14.001 2°55.448 349.6 -999 128 -999
2007-04-16 09:10:23 51°14.003 2°55.449 349.5 -999 249 -999
2007-04-16 09:11:23 51°14.004 2°55.45 349.2 -999 209 -999
2007-04-16 09:12:23 51°14.003 2°55.448 349.1 -999 46 -999
2007-04-16 09:13:23 51°14.003 2°55.449 349.1 -999 31 -999
2007-04-16 09:14:23 51°14.004 2°55.451 349.3 -999 50 -999
2007-04-16 09:15:23 51°14.004 2°55.451 349.2 -999 91 -999
2007-04-16 09:16:23 51°14.004 2°55.451 349.3 -999 247 -999
2007-04-16 09:17:24 51°14.004 2°55.451 349.1 -999 76 -999
2007-04-16 09:18:23 51°14.003 2°55.449 349.5 -999 227 -999
2007-04-16 09:19:23 51°14.004 2°55.451 349.1 -999 310 -999
2007-04-16 09:20:23 51°14.004 2°55.451 349.1 -999 298 -999
2007-04-16 09:21:23 51°14.004 2°55.451 349.1 -999 110 -999
2007-04-16 09:22:23 51°14.003 2°55.451 349.6 -999 325 -999
2007-04-16 09:23:23 51°14.003 2°55.451 349.7 -999 122 -999
2007-04-16 09:24:23 51°14.004 2°55.451 349.7 -999 2 -999
2007-04-16 09:25:23 51°14.004 2°55.452 349.3 -999 247 -999
2007-04-16 09:26:23 51°14.003 2°55.452 349.1 -999 74 -999
2007-04-16 09:27:23 51°14.004 2°55.452 349 -999 284 -999
2007-04-16 09:28:23 51°14.004 2°55.452 349 -999 41 -999
2007-04-16 09:29:23 51°14.004 2°55.452 348.9 -999 192 -999
2007-04-16 09:30:23 51°14.004 2°55.452 348.9 -999 230 -999
2007-04-16 09:31:23 51°14.004 2°55.452 349.1 -999 217 -999
2007-04-16 09:32:23 51°14.005 2°55.452 348.8 -999 210 -999
2007-04-16 09:33:23 51°14.004 2°55.45 348.8 -999 250 -999
2007-04-16 09:34:23 51°14.004 2°55.451 348.6 -999 272 -999
2007-04-16 09:35:23 51°14.004 2°55.45 348.5 -999 211 -999
2007-04-16 09:36:23 51°14.003 2°55.45 348.5 -999 54 -999
2007-04-16 09:37:23 51°14.003 2°55.45 348.7 -999 12 -999
2007-04-16 09:38:23 51°14.005 2°55.452 349.1 -999 29 -999
2007-04-16 09:39:23 51°14.003 2°55.451 348.8 -999 312 -999
2007-04-16 09:40:23 51°14.003 2°55.45 348.6 0.1 8 -999
2007-04-16 09:41:23 51°14.003 2°55.451 348.4 -999 30 -999
2007-04-16 09:42:23 51°14.003 2°55.45 348.3 -999 144 -999
2007-04-16 09:43:23 51°14.003 2°55.45 348.1 -999 257 -999
2007-04-16 09:44:23 51°14.005 2°55.452 348.3 0.1 1 -999
2007-04-16 09:45:23 51°14.005 2°55.452 349.1 -999 251 -999
2007-04-16 09:46:23 51°14.004 2°55.451 349.1 -999 300 -999
2007-04-16 09:47:23 51°14.003 2°55.45 349.1 -999 284 -999
2007-04-16 09:48:23 51°14.003 2°55.45 348.9 -999 275 -999
2007-04-16 09:49:23 51°14.003 2°55.449 348.7 -999 325 -999
2007-04-16 09:50:23 51°14.003 2°55.45 348.6 -999 111 -999
2007-04-16 09:51:23 51°14.003 2°55.449 348.5 -999 217 -999
2007-04-16 09:52:23 51°14 2°55.447 348.7 -999 225 -999
2007-04-16 09:53:23 51°13.998 2°55.446 348.8 -999 105 -999
2007-04-16 09:54:23 51°14.002 2°55.45 348.7 -999 314 -999
2007-04-16 09:55:24 51°14.003 2°55.451 348.8 -999 28 -999
2007-04-16 09:56:23 51°14.003 2°55.451 348.8 -999 207 -999
2007-04-16 09:57:23 51°14.003 2°55.451 348.8 -999 325 -999
2007-04-16 09:58:23 51°14.003 2°55.452 348.9 -999 347 -999
2007-04-16 09:59:23 51°14.003 2°55.452 348.9 -999 15 -999
2007-04-16 10:00:23 51°14.004 2°55.452 349.5 0.1 196 -999
2007-04-16 10:01:23 51°14.003 2°55.452 348.7 -999 48 -999
2007-04-16 10:02:23 51°14.003 2°55.452 348.4 -999 35 -999
2007-04-16 10:03:23 51°14.002 2°55.45 348.8 0.1 217 -999
2007-04-16 10:04:23 51°14.003 2°55.451 349.3 -999 13 -999
2007-04-16 10:05:23 51°14.003 2°55.451 349.2 0.1 171 -999
2007-04-16 10:06:23 51°14.004 2°55.452 349.2 -999 166 -999
2007-04-16 10:07:23 51°14.003 2°55.452 348.8 0.1 19 -999
2007-04-16 10:08:23 51°14.003 2°55.451 348.8 -999 202 -999
2007-04-16 10:09:23 51°14.003 2°55.451 348.5 -999 53 -999
2007-04-16 10:10:23 51°14.003 2°55.451 349.1 -999 46 -999
2007-04-16 10:11:24 51°14.003 2°55.451 349.2 -999 270 -999
2007-04-16 10:12:23 51°14.003 2°55.451 349.2 -999 161 -999
2007-04-16 10:13:23 51°14.003 2°55.451 349 -999 109 -999
2007-04-16 10:14:24 51°14.004 2°55.451 349 -999 22 -999
2007-04-16 10:15:23 51°14.003 2°55.45 349 -999 150 -999
2007-04-16 10:16:23 51°14.003 2°55.45 349 -999 337 -999
2007-04-16 10:17:23 51°14.003 2°55.45 349 -999 45 -999
2007-04-16 10:18:23 51°14.003 2°55.451 348.9 -999 233 -999
2007-04-16 10:19:24 51°14.003 2°55.45 348.9 -999 235 -999
2007-04-16 10:20:23 51°14.003 2°55.45 348.9 -999 350 -999
2007-04-16 10:21:23 51°14.003 2°55.451 348.9 -999 350 -999
2007-04-16 10:22:24 51°14.003 2°55.451 349.6 -999 280 -999
2007-04-16 10:23:23 51°14.003 2°55.451 349.6 -999 249 -999
2007-04-16 10:24:23 51°14.003 2°55.451 349.5 -999 105 -999
2007-04-16 10:25:23 51°14.003 2°55.451 349.4 -999 276 -999
2007-04-16 10:26:23 51°14.003 2°55.451 349.2 -999 95 -999
2007-04-16 10:27:24 51°14.003 2°55.451 349.2 0.1 20 -999
2007-04-16 10:28:23 51°14.004 2°55.451 349.2 -999 293 -999
2007-04-16 10:29:23 51°14.004 2°55.452 349.1 -999 175 -999
2007-04-16 10:30:24 51°14.004 2°55.451 348.9 -999 205 -999
2007-04-16 10:31:23 51°14.003 2°55.451 349 -999 63 -999
2007-04-16 10:32:24 51°14.003 2°55.451 349.3 -999 147 -999
2007-04-16 10:33:23 51°14.003 2°55.451 349.4 -999 356 -999
2007-04-16 10:34:23 51°14.003 2°55.451 349.3 -999 232 -999
2007-04-16 10:35:24 51°14.004 2°55.452 349.1 -999 124 -999
2007-04-16 10:36:23 51°14.004 2°55.451 349.1 -999 349 -999
2007-04-16 10:37:23 51°14.004 2°55.451 349.1 -999 196 -999
2007-04-16 10:38:24 51°14.004 2°55.452 349.1 -999 164 -999
2007-04-16 10:39:23 51°14.004 2°55.451 349 -999 124 -999
2007-04-16 10:40:24 51°14.004 2°55.451 348.9 -999 333 -999
2007-04-16 10:41:23 51°14.004 2°55.451 349 0.1 3 -999
2007-04-16 10:42:23 51°14.004 2°55.451 349.1 -999 332 -999
2007-04-16 10:43:24 51°14.004 2°55.451 349.1 -999 317 -999
2007-04-16 10:44:23 51°14.004 2°55.451 349 -999 314 -999
2007-04-16 10:45:24 51°14.004 2°55.451 349 -999 227 -999
2007-04-16 10:46:24 51°14.004 2°55.452 349 -999 76 -999
2007-04-16 10:47:23 51°14.003 2°55.452 349 -999 290 -999
2007-04-16 10:48:24 51°14.003 2°55.451 349.1 -999 144 -999
2007-04-16 10:49:23 51°14.003 2°55.451 349 -999 35 -999
2007-04-16 10:50:23 51°14.003 2°55.452 349 -999 98 -999
2007-04-16 10:51:24 51°14.003 2°55.452 348.9 -999 -999 -999
2007-04-16 10:52:23 51°14.003 2°55.452 349 0.1 139 -999
2007-04-16 10:53:24 51°14.003 2°55.451 349 -999 174 -999
2007-04-16 10:54:23 51°14.003 2°55.451 348.9 -999 298 -999
2007-04-16 10:55:24 51°14.004 2°55.451 348.9 -999 19 -999
2007-04-16 10:56:23 51°14.003 2°55.452 348.9 -999 18 -999
2007-04-16 10:57:24 51°14.003 2°55.452 348.9 -999 350 -999
2007-04-16 10:58:23 51°14.004 2°55.452 348.9 -999 347 -999
2007-04-16 10:59:23 51°14.005 2°55.45 348.9 -999 334 -999
2007-04-16 11:00:24 51°14.006 2°55.449 348.9 -999 354 -999
2007-04-16 11:01:23 51°14.007 2°55.448 348.9 0.1 306 -999
2007-04-16 11:02:24 51°14.008 2°55.447 348.9 0.1 343 -999
2007-04-16 11:03:23 51°14.01 2°55.445 348.9 0.1 322 -999
2007-04-16 11:04:23 51°14.011 2°55.443 348.9 0.1 329 -999
2007-04-16 11:05:24 51°14.012 2°55.441 348.9 0.1 341 -999
2007-04-16 11:06:23 51°14.02 2°55.441 348.8 -999 138 -999
2007-04-16 11:07:24 51°14.016 2°55.442 348.8 0.1 122 -999
2007-04-16 11:08:23 51°14.007 2°55.461 348.8 0.1 1 -999
2007-04-16 11:09:24 51°14.007 2°55.455 348.8 0.1 23 -999
2007-04-16 11:10:24 51°14.005 2°55.454 348.8 -999 120 -999
2007-04-16 11:11:23 51°14.004 2°55.453 348.7 -999 208 -999
2007-04-16 11:12:24 51°14.004 2°55.452 348.7 -999 212 -999
2007-04-16 11:13:23 51°14.003 2°55.452 348.8 -999 167 -999
2007-04-16 11:14:24 51°14.003 2°55.452 348.7 -999 82 -999
2007-04-16 11:15:24 51°14.003 2°55.452 348.7 -999 209 -999
2007-04-16 11:16:23 51°14.003 2°55.452 348.7 -999 217 -999
2007-04-16 11:17:24 51°14.004 2°55.452 348.7 0.1 50 -999
2007-04-16 11:18:24 51°14.004 2°55.452 348.8 -999 115 -999
2007-04-16 11:19:23 51°14.004 2°55.452 348.8 -999 231 -999
2007-04-16 11:20:24 51°14.004 2°55.452 348.9 -999 190 -999
2007-04-16 11:21:23 51°14.004 2°55.452 348.8 -999 216 -999
2007-04-16 11:22:24 51°14.004 2°55.452 348.8 -999 25 -999
2007-04-16 11:23:24 51°14.004 2°55.452 348.8 -999 201 -999
2007-04-16 11:24:23 51°14.004 2°55.451 348.8 -999 147 -999
2007-04-16 11:25:24 51°14.004 2°55.451 348.9 -999 249 -999
2007-04-16 11:26:23 51°14.004 2°55.451 348.8 -999 60 -999
2007-04-16 11:27:24 51°14.004 2°55.452 348.8 0.1 44 -999
2007-04-16 11:28:24 51°14.004 2°55.452 348.8 -999 22 -999
2007-04-16 11:29:23 51°14.004 2°55.453 348.8 -999 220 -999
2007-04-16 11:30:24 51°14.003 2°55.452 348.7 0.1 225 -999
2007-04-16 11:31:24 51°14.003 2°55.452 348.6 -999 359 -999
2007-04-16 11:32:23 51°14.003 2°55.452 349.2 -999 107 -999
2007-04-16 11:33:24 51°14.003 2°55.452 350.4 0.1 277 -999
2007-04-16 11:34:24 51°14.004 2°55.452 348.7 -999 95 -999
2007-04-16 11:35:24 51°14.004 2°55.452 351.3 -999 284 -999
2007-04-16 11:36:24 51°14.004 2°55.451 349.7 -999 81 -999
2007-04-16 11:37:23 51°14.004 2°55.452 350.1 0.1 253 -999
2007-04-16 11:38:24 51°14.003 2°55.451 348.4 0.1 136 -999
2007-04-16 11:39:24 51°14.003 2°55.453 352.3 0.1 97 -999
2007-04-16 11:40:24 51°14.004 2°55.455 358.7 0.4 1 -999
2007-04-16 11:41:24 51°14.043 2°55.447 355.5 5.2 351 -999
2007-04-16 11:42:23 51°14.147 2°55.411 343 7.4 341 -999
2007-04-16 11:43:24 51°14.253 2°55.289 313.5 8.1 311 -999
2007-04-16 11:44:24 51°14.346 2°55.098 309.1 10.5 306 -999
2007-04-16 11:45:23 51°14.443 2°54.865 294.6 10.4 299 -999
2007-04-16 11:46:24 51°14.507 2°54.611 286.4 10.1 290 -999
2007-04-16 11:47:22 51°14.55 2°54.363 280.2 10.1 285 14.5
2007-04-16 11:48:21 51°14.588 2°54.107 281 10.2 284 14.3
2007-04-16 11:49:20 51°14.624 2°53.85 275 9.8 274 14.3
2007-04-16 11:50:20 51°14.606 2°53.597 260 9.6 264 12.1
2007-04-16 11:51:19 51°14.6 2°53.34 266.3 10 268 11.8
2007-04-16 11:52:19 51°14.592 2°53.074 266.8 10.1 268 12.1
2007-04-16 11:53:19 51°14.584 2°52.807 266.4 10.1 267 12.3
2007-04-16 11:54:19 51°14.575 2°52.539 267.7 10.1 266 12.5
2007-04-16 11:55:20 51°14.535 2°52.353 233.1 4.5 222 12.6
2007-04-16 11:56:19 51°14.485 2°52.32 209 2.8 191 12.4
2007-04-16 11:57:19 51°14.449 2°52.307 226.5 1.7 210 12.2
2007-04-16 11:58:19 51°14.446 2°52.25 278.6 3 289 12.2
2007-04-16 11:59:19 51°14.466 2°52.169 279.1 3.3 286 12.3
2007-04-16 12:00:19 51°14.472 2°52.084 269.1 3.2 273 12.4
2007-04-16 12:01:19 51°14.468 2°52.002 261.2 3.1 262 12.4
2007-04-16 12:02:20 51°14.463 2°51.92 263.4 3 264 12.3
2007-04-16 12:03:19 51°14.448 2°51.846 245 2.9 240 12.3
2007-04-16 12:04:20 51°14.41 2°51.789 224.2 3.5 212 12.3
2007-04-16 12:05:19 51°14.361 2°51.737 225 3.6 215 12
2007-04-16 12:06:19 51°14.314 2°51.683 227.6 3.3 218 11.9
2007-04-16 12:07:19 51°14.276 2°51.627 238 3 231 11.7
2007-04-16 12:08:20 51°14.243 2°51.565 235 3.1 226 11.6
2007-04-16 12:09:20 51°14.202 2°51.513 227.1 3.2 218 11.4
2007-04-16 12:10:20 51°14.174 2°51.446 246.7 3.1 244 11.3
2007-04-16 12:11:19 51°14.143 2°51.381 229.3 3.2 220 11.1
2007-04-16 12:12:19 51°14.106 2°51.321 237.9 3.2 233 11.1
2007-04-16 12:13:19 51°14.078 2°51.249 246 3.2 245 11
2007-04-16 12:14:19 51°14.056 2°51.171 243.7 3.2 241 11
2007-04-16 12:15:20 51°14.024 2°51.102 236.6 3.2 233 10.9
2007-04-16 12:16:19 51°13.999 2°51.03 246.7 3.2 245 10.7
2007-04-16 12:17:19 51°13.976 2°50.953 244 3.2 243 10.6
2007-04-16 12:18:20 51°13.954 2°50.874 248.6 3.2 251 10.7
2007-04-16 12:19:19 51°13.934 2°50.799 241.8 3.1 240 10.8
2007-04-16 12:20:20 51°13.903 2°50.73 235.1 3.1 233 10.7
2007-04-16 12:21:20 51°13.879 2°50.656 249 3.2 252 10.6
2007-04-16 12:22:20 51°13.864 2°50.574 248.6 3.2 248 10.5
2007-04-16 12:23:19 51°13.841 2°50.498 246.9 3.3 248 10.6
2007-04-16 12:24:19 51°13.824 2°50.415 251.3 3.3 251 10.6
2007-04-16 12:25:20 51°13.804 2°50.332 247.2 3.3 246 10.6
2007-04-16 12:26:19 51°13.779 2°50.256 242 3.3 240 10.6
2007-04-16 12:27:20 51°13.755 2°50.175 249 3.3 251 10.5
2007-04-16 12:28:19 51°13.751 2°50.087 265.8 3.4 271 10.5
2007-04-16 12:29:20 51°13.759 2°49.997 276.2 3.3 286 10.8
2007-04-16 12:30:19 51°13.781 2°49.918 289.1 3.3 302 11.1
2007-04-16 12:31:19 51°13.824 2°49.86 322.5 3.5 338 11.2
2007-04-16 12:32:19 51°13.875 2°49.837 329.7 2.8 350 11.5
2007-04-16 12:33:19 51°13.914 2°49.833 331.7 2.1 2 11.6
2007-04-16 12:34:20 51°13.944 2°49.84 331.8 1.6 13 11.6
2007-04-16 12:35:19 51°13.966 2°49.852 331.4 1.7 15 11.8
2007-04-16 12:36:20 51°14.029 2°49.913 56.7 6.3 61 12
2007-04-16 12:37:19 51°14 2°50.067 143.5 7.5 130 11.7
2007-04-16 12:38:20 51°13.89 2°50.253 144.3 8.5 133 11
2007-04-16 12:39:19 51°13.854 2°50.387 102.8 4 86 10.6
2007-04-16 12:40:20 51°13.863 2°50.435 76.4 0.3 17 -999
2007-04-16 12:41:23 51°13.868 2°50.441 84.9 0.5 45 10.4
2007-04-16 12:42:22 51°13.874 2°50.448 93.7 0.6 43 10.7
2007-04-16 12:43:21 51°13.881 2°50.459 101.8 0.6 46 10.7
2007-04-16 12:44:19 51°13.888 2°50.472 108.7 0.7 46 10.6
2007-04-16 12:45:20 51°13.888 2°50.512 128.4 3.4 115 10.5
2007-04-16 12:46:19 51°13.829 2°50.525 221.9 4.3 226 10.4
2007-04-16 12:47:20 51°13.793 2°50.376 250 7.8 249 10.2
2007-04-16 12:48:19 51°13.733 2°50.143 249.2 11.4 247 10.1
2007-04-16 12:49:19 51°13.655 2°49.85 248.5 12.4 247 10.1
2007-04-16 12:50:19 51°13.577 2°49.55 249.1 12.3 247 9.9
2007-04-16 12:51:19 51°13.497 2°49.249 248.9 12.4 247 10.6
2007-04-16 12:52:20 51°13.416 2°48.941 249.4 12.4 248 10.8
2007-04-16 12:53:19 51°13.337 2°48.643 248.9 12.3 247 10.8
2007-04-16 12:54:20 51°13.25 2°48.34 245.4 12.3 243 10.9
2007-04-16 12:55:19 51°13.159 2°48.052 245.6 12.3 243 10.5
2007-04-16 12:56:19 51°13.068 2°47.757 246 12.4 244 10.9
2007-04-16 12:57:20 51°12.975 2°47.457 246.8 12.4 244 10.7
2007-04-16 12:58:20 51°12.884 2°47.162 245.8 12.5 243 11.5
2007-04-16 12:59:20 51°12.791 2°46.867 246.1 12.4 243 10.1
2007-04-16 13:00:20 51°12.7 2°46.573 246.1 12.4 244 10.5
2007-04-16 13:01:20 51°12.609 2°46.277 246.4 12.4 244 10.4
2007-04-16 13:02:19 51°12.519 2°45.987 246.2 12.4 243 10.8
2007-04-16 13:03:20 51°12.415 2°45.743 224 8.1 216 10.7
2007-04-16 13:04:19 51°12.327 2°45.699 203.3 4.1 196 10.1
2007-04-16 13:05:20 51°12.288 2°45.645 243.1 3.2 243 10
2007-04-16 13:06:20 51°12.27 2°45.558 254 3.5 254 10.3
2007-04-16 13:07:20 51°12.256 2°45.477 256.9 2.9 258 10.5
2007-04-16 13:08:19 51°12.245 2°45.401 255.4 3.3 254 10.3
2007-04-16 13:09:20 51°12.225 2°45.314 250.4 3.5 250 10.2
2007-04-16 13:10:20 51°12.209 2°45.223 257.5 3.6 257 10.2
2007-04-16 13:11:19 51°12.197 2°45.132 257.5 3.6 257 10
2007-04-16 13:12:20 51°12.183 2°45.04 256.8 3.5 257 10.8
2007-04-16 13:13:20 51°12.17 2°44.95 257.6 3.6 259 10
2007-04-16 13:14:20 51°12.157 2°44.859 257.3 3.5 258 9.9
2007-04-16 13:15:20 51°12.144 2°44.769 257 3.5 257 10
2007-04-16 13:16:19 51°12.13 2°44.681 257 3.5 256 9.9
2007-04-16 13:17:20 51°12.117 2°44.591 257.6 3.5 258 9.9
2007-04-16 13:18:20 51°12.104 2°44.502 257 3.5 256 9.7
2007-04-16 13:19:20 51°12.09 2°44.412 256.7 3.5 257 10.1
2007-04-16 13:20:20 51°12.075 2°44.324 256.4 3.4 255 10.2
2007-04-16 13:21:20 51°12.06 2°44.235 254.7 3.5 254 9
2007-04-16 13:22:20 51°12.043 2°44.148 254.2 3.5 253 10.1
2007-04-16 13:23:19 51°12.025 2°44.062 253.1 3.5 251 10.2
2007-04-16 13:24:20 51°12.006 2°43.974 252.5 3.5 251 9.9
2007-04-16 13:25:20 51°11.988 2°43.886 253.2 3.5 252 10.2
2007-04-16 13:26:20 51°11.97 2°43.799 252.8 3.4 251 9.9
2007-04-16 13:27:19 51°11.952 2°43.714 253 3.5 251 9.9
2007-04-16 13:28:20 51°11.932 2°43.626 252.8 3.5 251 10
2007-04-16 13:29:19 51°11.913 2°43.541 251.1 3.4 249 9.8
2007-04-16 13:30:20 51°11.891 2°43.456 248 3.4 244 9.9
2007-04-16 13:31:20 51°11.853 2°43.389 228.7 3.4 223 10.5
2007-04-16 13:32:20 51°11.812 2°43.325 233.3 3.5 227 10.7
2007-04-16 13:33:20 51°11.775 2°43.253 238.4 3.5 234 11.1
2007-04-16 13:34:20 51°11.744 2°43.176 245.4 3.4 241 11.5
2007-04-16 13:35:20 51°11.724 2°43.095 257.1 3.2 255 11.6
2007-04-16 13:36:19 51°11.723 2°43.016 282.6 2.6 288 11.6
2007-04-16 13:37:20 51°11.743 2°42.971 304.6 1.5 315 11.4
2007-04-16 13:38:20 51°11.757 2°42.951 301.9 1 321 11.3
2007-04-16 13:39:20 51°11.804 2°42.932 4 4.7 14 11.4
2007-04-16 13:40:20 51°11.866 2°43.065 67.3 9.8 62 11.5
2007-04-16 13:41:20 51°11.97 2°43.358 65.3 13.6 60 10.4
2007-04-16 13:42:20 51°12.077 2°43.659 65.2 10.7 60 10.1
2007-04-16 13:43:20 51°12.117 2°43.834 97.4 5.2 89 10.3
2007-04-16 13:44:20 51°12.108 2°43.914 134.6 1.5 107 10.5
2007-04-16 13:45:20 51°12.107 2°43.936 156.9 0.7 105 10.6
2007-04-16 13:46:20 51°12.103 2°43.956 162.6 0.7 113 10.3
2007-04-16 13:47:20 51°12.098 2°43.975 167.4 0.8 120 10
2007-04-16 13:48:20 51°12.09 2°43.993 178 0.8 128 9.8
2007-04-16 13:49:20 51°12.082 2°44.008 190 0.7 132 9.7
2007-04-16 13:50:19 51°12.072 2°44.019 196.8 1.2 162 9.6
2007-04-16 13:51:20 51°12.04 2°44.062 135 3.8 117 9.6
2007-04-16 13:52:19 51°12.059 2°44.186 63.4 7.4 60 9.9
2007-04-16 13:53:20 51°12.156 2°44.459 65.6 13.3 60 9.1
2007-04-16 13:54:19 51°12.264 2°44.766 65.3 13.6 60 9.5
2007-04-16 13:55:19 51°12.377 2°45.08 65.3 13.7 61 9.6
2007-04-16 13:56:19 51°12.48 2°45.401 68.3 13.6 63 10
2007-04-16 13:57:20 51°12.585 2°45.73 68.2 13.6 62 10.5
2007-04-16 13:58:19 51°12.686 2°46.047 67.6 13.6 62 10.9
2007-04-16 13:59:19 51°12.795 2°46.361 65.9 13.5 61 10.5
2007-04-16 14:00:19 51°12.903 2°46.675 66.4 13.5 61 10.5
2007-04-16 14:01:20 51°13.014 2°46.994 66.4 13.6 62 10.3
2007-04-16 14:02:20 51°13.122 2°47.31 66.7 13.6 61 10.2
2007-04-16 14:03:19 51°13.229 2°47.621 66.2 13.5 61 10.5
2007-04-16 14:04:19 51°13.336 2°47.936 66.4 13.5 61 10.4
2007-04-16 14:05:20 51°13.446 2°48.255 66.1 13.5 62 10.4
2007-04-16 14:06:20 51°13.554 2°48.569 66.2 13.5 61 10.5
2007-04-16 14:07:19 51°13.659 2°48.879 66.2 13.5 62 10.2
2007-04-16 14:08:19 51°13.765 2°49.195 68.7 13.6 65 10.4
2007-04-16 14:09:20 51°13.863 2°49.524 69.5 13.5 65 10.1
2007-04-16 14:10:19 51°13.954 2°49.843 71.6 13.5 66 10
2007-04-16 14:11:19 51°14.04 2°50.172 73.5 13.4 69 10
2007-04-16 14:12:20 51°14.122 2°50.51 73.5 13.5 69 10
2007-04-16 14:13:20 51°14.202 2°50.843 73.1 13.4 69 10.1
2007-04-16 14:14:20 51°14.282 2°51.175 73 13.4 69 10.1
2007-04-16 14:15:19 51°14.35 2°51.507 76.9 13.4 73 10.1
2007-04-16 14:16:20 51°14.415 2°51.851 79 13.3 76 10.1
2007-04-16 14:17:19 51°14.469 2°52.187 81.7 13.3 78 10.3
2007-04-16 14:18:20 51°14.515 2°52.539 83.2 13.2 79 10.4
2007-04-16 14:19:19 51°14.556 2°52.88 82.8 13.3 78 10.2
2007-04-16 14:20:20 51°14.589 2°53.237 87.5 13.5 82 9.9
2007-04-16 14:21:19 51°14.604 2°53.586 93.3 13.1 89 10.1
2007-04-16 14:22:19 51°14.599 2°53.946 104.5 13.7 102 12.4
2007-04-16 14:23:20 51°14.521 2°54.292 113 13.7 109 12.5
2007-04-16 14:24:20 51°14.46 2°54.644 106 13.7 102 4.8
2007-04-16 14:25:20 51°14.382 2°54.977 118.7 13.2 118 11.3
2007-04-16 14:26:20 51°14.262 2°55.242 134.4 11 135 11.4
2007-04-16 14:27:19 51°14.151 2°55.38 152.2 7.5 150 12.9
2007-04-16 14:28:19 51°14.042 2°55.468 156.8 7.4 154 12.3
2007-04-16 14:29:20 51°13.928 2°55.555 157.1 7.5 155 12.2
2007-04-16 14:30:19 51°13.818 2°55.64 154.5 7.3 151 12.5
2007-04-16 14:31:19 51°13.73 2°55.752 134.2 6.1 131 13.6
2007-04-16 14:32:20 51°13.673 2°55.871 129.9 4.9 126 11.1
2007-04-16 14:33:19 51°13.636 2°55.964 121.2 3.7 118 11.3
2007-04-16 14:34:20 51°13.614 2°56.045 109.5 2.8 108 10.3
2007-04-16 14:35:20 51°13.605 2°56.09 113.2 0.8 120 6.5